Liverpool Whitlam Centre, New South Wales

10:07 PM AEST on September 30, 2016 (GMT +1000)
Moorebank | | Change Station

Elev 66 ft 33.93 °S, 150.95 °E | Updated 19 seconds ago

Clear
Clear
58.9 °F
Feels Like 58.9 °F
N
11.5
Wind Variable Wind from West
Gusts 11.5 mph

Today
High -- | Low -- °F
--% Chance of Precip.
Yesterday
High -- | Low -- °F
Precip. -- in
Pressure 29.59 in
Visibility 6.2 miles
Clouds
Dew Point 42 °F
Humidity 54%
Rainfall 0.00 in
Snow Depth Not available.
5:34 AM 5:58 PM
Waning Crescent, 0% visible
METAR YSRI 301200Z AUTO 36006KT 9999 // NCD 13/05 Q1002
Pressure 29.59 in
Visibility 6.2 miles
Clouds
Dew Point 42 °F
Humidity 54%
Rainfall 0.00 in
Snow Depth Not available.
5:34 AM 5:58 PM
Waning Crescent, 0% visible
METAR YSRI 301200Z AUTO 36006KT 9999 // NCD 13/05 Q1002

10-Day Weather Forecast

Almanac

Astronomy

Sep. 30, 2016 Rise Set
Actual Time
Civil Twilight
Nautical Twilight
Astronomical Twilight
Moon
Length of Visible Light
Length of Day
Tomorrow will be .
, % of the Moon is Illuminated

Today's Extremes

Country Highs Country Lows

Community

WunderPhotos

Upload Photos

1,942,706 photos uploaded!

WunderBlog® & News

Nearby

Air Quality

  Air Quality AQ Index Pollutant
Not available.

Snow Depth

Station Depth Elevation

Earthquake Activity

City Distance Mag. Time & Date
Minimum magnitude displayed is 2.5.

Coastal Water Temperatures

Place Temperature

Stations

Nearby Weather Stations

Station Location Temp. Windchill Dew Point Humidity Wind Precip. Elev Updated Type